sensor_id;sensor_type;location;lat;lon;timestamp;pressure;altitude;pressure_sealevel;temperature;humidity
50268;BME280;36153;50.960;6.220;2023-02-02T00:02:22;101182.34;;;10.49;62.87
50268;BME280;36153;50.960;6.220;2023-02-02T00:05:23;101184.28;;;10.56;62.80
50268;BME280;36153;50.960;6.220;2023-02-02T00:08:25;101188.47;;;10.51;62.56
50268;BME280;36153;50.960;6.220;2023-02-02T00:11:27;101185.91;;;10.53;62.36
50268;BME280;36153;50.960;6.220;2023-02-02T00:14:28;101183.44;;;10.59;62.41
50268;BME280;36153;50.960;6.220;2023-02-02T00:17:30;101181.34;;;10.43;62.60
50268;BME280;36153;50.960;6.220;2023-02-02T00:20:32;101179.81;;;10.51;62.22
50268;BME280;36153;50.960;6.220;2023-02-02T00:23:36;101170.19;;;10.48;62.31
50268;BME280;36153;50.960;6.220;2023-02-02T00:26:39;101173.94;;;10.61;62.18
50268;BME280;36153;50.960;6.220;2023-02-02T00:29:41;101179.16;;;10.61;62.26
50268;BME280;36153;50.960;6.220;2023-02-02T00:32:43;101178.16;;;10.56;62.44
50268;BME280;36153;50.960;6.220;2023-02-02T00:35:48;101168.88;;;10.69;62.20
50268;BME280;36153;50.960;6.220;2023-02-02T00:38:51;101168.91;;;10.32;63.83
50268;BME280;36153;50.960;6.220;2023-02-02T00:41:53;101169.25;;;10.45;63.58
50268;BME280;36153;50.960;6.220;2023-02-02T00:44:53;101160.00;;;10.21;64.19
50268;BME280;36153;50.960;6.220;2023-02-02T00:48:12;101163.97;;;10.41;63.80
50268;BME280;36153;50.960;6.220;2023-02-02T00:51:13;101161.41;;;10.43;63.36
50268;BME280;36153;50.960;6.220;2023-02-02T00:54:13;101160.38;;;10.36;63.59
50268;BME280;36153;50.960;6.220;2023-02-02T00:57:13;101161.28;;;10.37;63.61
50268;BME280;36153;50.960;6.220;2023-02-02T01:00:16;101167.63;;;10.50;63.27
50268;BME280;36153;50.960;6.220;2023-02-02T01:03:17;101164.75;;;10.37;63.57
50268;BME280;36153;50.960;6.220;2023-02-02T01:06:18;101159.75;;;10.47;62.92
50268;BME280;36153;50.960;6.220;2023-02-02T01:09:18;101153.84;;;10.54;63.07
50268;BME280;36153;50.960;6.220;2023-02-02T01:12:18;101166.03;;;10.55;62.72
50268;BME280;36153;50.960;6.220;2023-02-02T01:15:19;101154.47;;;10.44;63.07
50268;BME280;36153;50.960;6.220;2023-02-02T01:18:19;101153.63;;;10.45;62.92
50268;BME280;36153;50.960;6.220;2023-02-02T01:21:20;101169.72;;;10.66;62.15
50268;BME280;36153;50.960;6.220;2023-02-02T01:24:21;101166.25;;;10.67;62.09
50268;BME280;36153;50.960;6.220;2023-02-02T01:27:21;101165.09;;;10.53;62.50
50268;BME280;36153;50.960;6.220;2023-02-02T01:30:21;101173.75;;;10.53;62.56
50268;BME280;36153;50.960;6.220;2023-02-02T01:33:22;101175.19;;;10.39;62.87
50268;BME280;36153;50.960;6.220;2023-02-02T01:36:23;101179.94;;;10.57;62.46
50268;BME280;36153;50.960;6.220;2023-02-02T01:39:24;101172.63;;;10.40;62.65
50268;BME280;36153;50.960;6.220;2023-02-02T01:42:24;101185.06;;;10.54;62.07
50268;BME280;36153;50.960;6.220;2023-02-02T01:45:27;101192.88;;;10.54;62.50
50268;BME280;36153;50.960;6.220;2023-02-02T01:48:31;101194.84;;;10.64;62.21
50268;BME280;36153;50.960;6.220;2023-02-02T01:51:55;101196.38;;;10.56;62.06
50268;BME280;36153;50.960;6.220;2023-02-02T01:55:00;101189.38;;;10.53;62.33
50268;BME280;36153;50.960;6.220;2023-02-02T01:58:06;101196.41;;;10.57;62.16
50268;BME280;36153;50.960;6.220;2023-02-02T02:01:08;101207.66;;;10.55;61.91
50268;BME280;36153;50.960;6.220;2023-02-02T02:04:09;101194.84;;;10.64;61.99
50268;BME280;36153;50.960;6.220;2023-02-02T02:07:10;101201.09;;;10.72;61.51
50268;BME280;36153;50.960;6.220;2023-02-02T02:10:11;101200.63;;;10.51;62.25
50268;BME280;36153;50.960;6.220;2023-02-02T02:13:12;101196.75;;;10.73;61.40
50268;BME280;36153;50.960;6.220;2023-02-02T02:31:01;101176.81;;;10.73;61.68
50268;BME280;36153;50.960;6.220;2023-02-02T02:34:17;101178.31;;;10.62;61.83
50268;BME280;36153;50.960;6.220;2023-02-02T02:40:46;101182.16;;;10.80;61.42
50268;BME280;36153;50.960;6.220;2023-02-02T02:44:03;101175.94;;;10.73;61.60
50268;BME280;36153;50.960;6.220;2023-02-02T02:47:06;101186.34;;;10.73;61.62
50268;BME280;36153;50.960;6.220;2023-02-02T02:50:07;101182.84;;;10.71;61.81
50268;BME280;36153;50.960;6.220;2023-02-02T02:53:13;101181.81;;;10.64;62.01
50268;BME280;36153;50.960;6.220;2023-02-02T02:56:24;101176.06;;;10.79;61.70
50268;BME280;36153;50.960;6.220;2023-02-02T03:09:21;101195.19;;;10.81;61.64
50268;BME280;36153;50.960;6.220;2023-02-02T03:12:24;101198.88;;;10.91;61.39
50268;BME280;36153;50.960;6.220;2023-02-02T03:15:24;101208.13;;;10.76;61.78
50268;BME280;36153;50.960;6.220;2023-02-02T03:18:27;101194.13;;;10.71;61.63
50268;BME280;36153;50.960;6.220;2023-02-02T03:21:29;101196.13;;;10.83;61.26
50268;BME280;36153;50.960;6.220;2023-02-02T03:24:29;101197.50;;;10.67;61.49
50268;BME280;36153;50.960;6.220;2023-02-02T03:27:30;101195.69;;;10.63;61.79
50268;BME280;36153;50.960;6.220;2023-02-02T03:30:30;101192.63;;;10.83;61.62
50268;BME280;36153;50.960;6.220;2023-02-02T03:33:32;101198.34;;;10.65;61.84
50268;BME280;36153;50.960;6.220;2023-02-02T03:36:34;101203.03;;;10.83;61.24
50268;BME280;36153;50.960;6.220;2023-02-02T03:39:34;101196.16;;;10.85;61.32
50268;BME280;36153;50.960;6.220;2023-02-02T03:42:35;101198.31;;;11.04;60.82
50268;BME280;36153;50.960;6.220;2023-02-02T03:45:35;101211.06;;;10.92;60.89
50268;BME280;36153;50.960;6.220;2023-02-02T03:48:37;101211.22;;;10.98;60.93
50268;BME280;36153;50.960;6.220;2023-02-02T03:51:37;101201.50;;;10.91;60.92
50268;BME280;36153;50.960;6.220;2023-02-02T03:54:38;101201.56;;;10.92;61.28
50268;BME280;36153;50.960;6.220;2023-02-02T03:57:38;101203.13;;;10.86;61.34
50268;BME280;36153;50.960;6.220;2023-02-02T04:00:39;101206.31;;;10.72;61.60
50268;BME280;36153;50.960;6.220;2023-02-02T04:03:39;101204.00;;;10.86;61.00
50268;BME280;36153;50.960;6.220;2023-02-02T04:06:39;101215.38;;;10.90;60.89
50268;BME280;36153;50.960;6.220;2023-02-02T04:09:40;101207.78;;;10.61;61.74
50268;BME280;36153;50.960;6.220;2023-02-02T04:12:40;101200.13;;;10.69;61.74
50268;BME280;36153;50.960;6.220;2023-02-02T04:15:41;101202.94;;;10.76;61.28
50268;BME280;36153;50.960;6.220;2023-02-02T04:18:41;101208.97;;;10.75;61.43
50268;BME280;36153;50.960;6.220;2023-02-02T04:21:41;101220.31;;;10.78;61.58
50268;BME280;36153;50.960;6.220;2023-02-02T04:24:42;101208.97;;;10.75;61.36
50268;BME280;36153;50.960;6.220;2023-02-02T04:27:42;101219.56;;;10.83;61.14
50268;BME280;36153;50.960;6.220;2023-02-02T04:30:42;101233.13;;;10.68;61.79
50268;BME280;36153;50.960;6.220;2023-02-02T04:33:43;101225.50;;;10.76;61.87
50268;BME280;36153;50.960;6.220;2023-02-02T04:36:43;101220.69;;;10.55;62.03
50268;BME280;36153;50.960;6.220;2023-02-02T04:39:44;101233.47;;;10.46;62.42
50268;BME280;36153;50.960;6.220;2023-02-02T04:42:44;101240.22;;;10.75;61.54
50268;BME280;36153;50.960;6.220;2023-02-02T04:45:44;101238.25;;;10.65;61.79
50268;BME280;36153;50.960;6.220;2023-02-02T04:48:47;101244.72;;;10.83;61.75
50268;BME280;36153;50.960;6.220;2023-02-02T04:51:48;101245.28;;;10.68;62.30
50268;BME280;36153;50.960;6.220;2023-02-02T04:54:49;101248.47;;;10.56;62.26
50268;BME280;36153;50.960;6.220;2023-02-02T04:57:49;101245.41;;;10.74;62.18
50268;BME280;36153;50.960;6.220;2023-02-02T05:00:50;101244.13;;;10.55;62.60
50268;BME280;36153;50.960;6.220;2023-02-02T05:03:51;101241.97;;;10.38;63.17
50268;BME280;36153;50.960;6.220;2023-02-02T05:06:51;101247.50;;;10.51;63.30
50268;BME280;36153;50.960;6.220;2023-02-02T05:09:52;101247.50;;;10.51;63.15
50268;BME280;36153;50.960;6.220;2023-02-02T05:12:53;101260.19;;;10.38;63.26
50268;BME280;36153;50.960;6.220;2023-02-02T05:15:53;101261.53;;;10.59;62.79
50268;BME280;36153;50.960;6.220;2023-02-02T05:18:55;101262.81;;;10.38;63.58
50268;BME280;36153;50.960;6.220;2023-02-02T05:21:55;101259.63;;;10.52;63.17
50268;BME280;36153;50.960;6.220;2023-02-02T05:24:56;101259.50;;;10.46;63.13
50268;BME280;36153;50.960;6.220;2023-02-02T05:27:56;101250.03;;;10.49;63.13
50268;BME280;36153;50.960;6.220;2023-02-02T05:30:57;101258.78;;;10.51;63.42
50268;BME280;36153;50.960;6.220;2023-02-02T05:33:57;101252.53;;;10.11;64.78
50268;BME280;36153;50.960;6.220;2023-02-02T05:36:58;101254.41;;;10.17;64.89
50268;BME280;36153;50.960;6.220;2023-02-02T05:39:58;101251.75;;;10.14;65.45
50268;BME280;36153;50.960;6.220;2023-02-02T05:42:59;101236.78;;;10.05;65.42
50268;BME280;36153;50.960;6.220;2023-02-02T05:45:59;101231.59;;;10.05;66.04
50268;BME280;36153;50.960;6.220;2023-02-02T05:49:00;101243.66;;;10.03;66.08
50268;BME280;36153;50.960;6.220;2023-02-02T05:52:04;101236.94;;;10.11;66.38
50268;BME280;36153;50.960;6.220;2023-02-02T05:55:04;101244.47;;;10.00;66.50
50268;BME280;36153;50.960;6.220;2023-02-02T05:58:05;101255.81;;;10.02;66.57
50268;BME280;36153;50.960;6.220;2023-02-02T06:01:05;101262.97;;;10.13;66.20
50268;BME280;36153;50.960;6.220;2023-02-02T06:04:06;101259.78;;;9.89;66.96
50268;BME280;36153;50.960;6.220;2023-02-02T06:07:06;101259.84;;;9.91;66.77
50268;BME280;36153;50.960;6.220;2023-02-02T06:10:07;101262.66;;;10.00;66.83
50268;BME280;36153;50.960;6.220;2023-02-02T06:13:07;101261.91;;;10.04;66.69
50268;BME280;36153;50.960;6.220;2023-02-02T06:16:08;101281.13;;;10.10;66.57
50268;BME280;36153;50.960;6.220;2023-02-02T06:19:09;101280.88;;;10.00;66.50
50268;BME280;36153;50.960;6.220;2023-02-02T06:22:09;101276.81;;;10.12;66.45
50268;BME280;36153;50.960;6.220;2023-02-02T06:25:09;101284.34;;;9.99;66.94
50268;BME280;36153;50.960;6.220;2023-02-02T06:28:10;101266.00;;;9.95;66.82
50268;BME280;36153;50.960;6.220;2023-02-02T06:31:10;101270.31;;;9.94;67.15
50268;BME280;36153;50.960;6.220;2023-02-02T06:34:11;101266.97;;;9.98;66.90
50268;BME280;36153;50.960;6.220;2023-02-02T06:37:14;101263.59;;;10.02;66.81
50268;BME280;36153;50.960;6.220;2023-02-02T06:40:14;101259.34;;;10.06;66.53
50268;BME280;36153;50.960;6.220;2023-02-02T06:43:15;101269.31;;;9.89;67.08
50268;BME280;36153;50.960;6.220;2023-02-02T06:46:16;101283.09;;;9.86;67.27
50268;BME280;36153;50.960;6.220;2023-02-02T06:49:16;101283.50;;;10.02;66.40
50268;BME280;36153;50.960;6.220;2023-02-02T06:52:17;101280.94;;;10.03;66.47
50268;BME280;36153;50.960;6.220;2023-02-02T06:55:18;101279.34;;;10.08;66.52
50268;BME280;36153;50.960;6.220;2023-02-02T06:58:18;101279.13;;;9.99;66.60
50268;BME280;36153;50.960;6.220;2023-02-02T07:01:19;101285.09;;;9.95;66.59
50268;BME280;36153;50.960;6.220;2023-02-02T07:04:19;101283.69;;;10.08;66.13
50268;BME280;36153;50.960;6.220;2023-02-02T07:07:20;101286.78;;;9.95;66.78
50268;BME280;36153;50.960;6.220;2023-02-02T07:10:21;101290.22;;;9.94;67.10
50268;BME280;36153;50.960;6.220;2023-02-02T07:13:21;101284.38;;;10.01;66.74
50268;BME280;36153;50.960;6.220;2023-02-02T07:16:21;101284.22;;;9.96;66.93
50268;BME280;36153;50.960;6.220;2023-02-02T07:19:22;101296.47;;;10.00;66.59
50268;BME280;36153;50.960;6.220;2023-02-02T07:22:22;101292.94;;;9.97;67.03
50268;BME280;36153;50.960;6.220;2023-02-02T07:25:23;101291.13;;;9.94;66.98
50268;BME280;36153;50.960;6.220;2023-02-02T07:28:26;101294.78;;;10.01;66.51
50268;BME280;36153;50.960;6.220;2023-02-02T07:31:26;101299.38;;;10.11;66.25
50268;BME280;36153;50.960;6.220;2023-02-02T07:34:28;101290.56;;;10.06;65.79
50268;BME280;36153;50.960;6.220;2023-02-02T07:37:28;101310.66;;;10.12;65.94
50268;BME280;36153;50.960;6.220;2023-02-02T07:40:28;101302.78;;;10.08;65.95
50268;BME280;36153;50.960;6.220;2023-02-02T07:43:29;101295.69;;;10.03;66.21
50268;BME280;36153;50.960;6.220;2023-02-02T07:46:29;101301.53;;;10.28;65.36
50268;BME280;36153;50.960;6.220;2023-02-02T07:49:30;101297.78;;;10.16;65.82
50268;BME280;36153;50.960;6.220;2023-02-02T07:52:30;101307.91;;;10.05;65.94
50268;BME280;36153;50.960;6.220;2023-02-02T07:55:31;101306.28;;;10.09;65.91
50268;BME280;36153;50.960;6.220;2023-02-02T07:58:31;101306.09;;;10.03;66.08
50268;BME280;36153;50.960;6.220;2023-02-02T08:01:31;101300.94;;;10.04;66.23
50268;BME280;36153;50.960;6.220;2023-02-02T08:04:32;101307.75;;;10.33;66.15
50268;BME280;36153;50.960;6.220;2023-02-02T08:07:33;101301.44;;;10.23;65.98
50268;BME280;36153;50.960;6.220;2023-02-02T08:10:34;101308.91;;;10.43;65.28
50268;BME280;36153;50.960;6.220;2023-02-02T08:13:38;101311.97;;;10.29;65.03
50268;BME280;36153;50.960;6.220;2023-02-02T08:16:38;101320.28;;;10.16;65.94
50268;BME280;36153;50.960;6.220;2023-02-02T08:19:39;101320.06;;;10.38;65.56
50268;BME280;36153;50.960;6.220;2023-02-02T08:22:39;101334.38;;;10.24;65.72
50268;BME280;36153;50.960;6.220;2023-02-02T08:25:40;101339.19;;;10.40;65.22
50268;BME280;36153;50.960;6.220;2023-02-02T08:28:42;101344.94;;;10.29;66.17
50268;BME280;36153;50.960;6.220;2023-02-02T08:31:43;101354.59;;;10.33;65.53
50268;BME280;36153;50.960;6.220;2023-02-02T08:34:47;101340.97;;;10.41;65.38
50268;BME280;36153;50.960;6.220;2023-02-02T08:37:48;101332.03;;;10.33;65.68
50268;BME280;36153;50.960;6.220;2023-02-02T08:40:48;101352.84;;;10.33;65.06
50268;BME280;36153;50.960;6.220;2023-02-02T08:44:12;101356.41;;;10.35;65.18
50268;BME280;36153;50.960;6.220;2023-02-02T08:47:13;101354.81;;;10.40;65.44
50268;BME280;36153;50.960;6.220;2023-02-02T08:50:13;101354.38;;;10.25;65.74
50268;BME280;36153;50.960;6.220;2023-02-02T08:53:14;101363.69;;;10.49;65.44
50268;BME280;36153;50.960;6.220;2023-02-02T08:56:16;101355.38;;;10.30;65.55
50268;BME280;36153;50.960;6.220;2023-02-02T08:59:17;101361.09;;;10.49;65.12
50268;BME280;36153;50.960;6.220;2023-02-02T09:02:18;101365.16;;;10.37;65.43
50268;BME280;36153;50.960;6.220;2023-02-02T09:05:18;101366.91;;;10.38;65.94
50268;BME280;36153;50.960;6.220;2023-02-02T09:08:18;101372.75;;;10.31;66.10
50268;BME280;36153;50.960;6.220;2023-02-02T09:11:19;101377.78;;;10.25;66.37
50268;BME280;36153;50.960;6.220;2023-02-02T09:14:20;101379.03;;;10.38;65.76
50268;BME280;36153;50.960;6.220;2023-02-02T09:17:20;101384.38;;;10.43;65.65
50268;BME280;36153;50.960;6.220;2023-02-02T09:20:21;101397.09;;;10.65;65.45
50268;BME280;36153;50.960;6.220;2023-02-02T09:23:21;101405.28;;;10.46;65.63
50268;BME280;36153;50.960;6.220;2023-02-02T09:26:24;101407.94;;;10.49;66.25
50268;BME280;36153;50.960;6.220;2023-02-02T09:29:25;101420.34;;;10.59;65.43
50268;BME280;36153;50.960;6.220;2023-02-02T09:32:25;101430.63;;;10.53;65.85
50268;BME280;36153;50.960;6.220;2023-02-02T09:35:25;101429.03;;;10.58;66.11
50268;BME280;36153;50.960;6.220;2023-02-02T09:38:26;101448.44;;;10.37;66.68
50268;BME280;36153;50.960;6.220;2023-02-02T09:48:01;101450.81;;;10.62;66.36
50268;BME280;36153;50.960;6.220;2023-02-02T09:51:15;101467.91;;;10.52;66.26
50268;BME280;36153;50.960;6.220;2023-02-02T09:54:26;101472.25;;;10.51;66.78
50268;BME280;36153;50.960;6.220;2023-02-02T09:57:32;101461.19;;;10.60;66.40
50268;BME280;36153;50.960;6.220;2023-02-02T10:00:44;101470.66;;;10.56;66.73
50268;BME280;36153;50.960;6.220;2023-02-02T10:07:15;101469.75;;;10.89;66.27
50268;BME280;36153;50.960;6.220;2023-02-02T10:10:27;101480.97;;;10.87;65.88
50268;BME280;36153;50.960;6.220;2023-02-02T10:13:31;101489.78;;;10.92;65.75
50268;BME280;36153;50.960;6.220;2023-02-02T10:16:34;101496.69;;;10.90;65.77
50268;BME280;36153;50.960;6.220;2023-02-02T10:19:35;101499.69;;;10.72;66.05
50268;BME280;36153;50.960;6.220;2023-02-02T10:22:36;101502.03;;;10.95;65.53
50268;BME280;36153;50.960;6.220;2023-02-02T10:25:42;101505.19;;;11.16;64.74
50268;BME280;36153;50.960;6.220;2023-02-02T10:29:07;101495.91;;;10.92;65.21
50268;BME280;36153;50.960;6.220;2023-02-02T10:32:17;101499.06;;;10.81;65.27
50268;BME280;36153;50.960;6.220;2023-02-02T10:41:51;101509.47;;;11.14;64.60
50268;BME280;36153;50.960;6.220;2023-02-02T10:45:01;101496.88;;;11.33;63.86
50268;BME280;36153;50.960;6.220;2023-02-02T10:48:11;101497.34;;;11.51;63.46
50268;BME280;36153;50.960;6.220;2023-02-02T10:51:19;101501.16;;;11.29;64.04
50268;BME280;36153;50.960;6.220;2023-02-02T10:54:45;101515.25;;;11.37;63.57
50268;BME280;36153;50.960;6.220;2023-02-02T11:01:12;101502.47;;;11.48;63.28
50268;BME280;36153;50.960;6.220;2023-02-02T11:04:17;101511.66;;;11.32;63.60
50268;BME280;36153;50.960;6.220;2023-02-02T11:07:38;101510.91;;;11.38;63.56
50268;BME280;36153;50.960;6.220;2023-02-02T11:10:38;101512.72;;;11.40;63.63
50268;BME280;36153;50.960;6.220;2023-02-02T11:13:47;101502.38;;;11.43;63.14
50268;BME280;36153;50.960;6.220;2023-02-02T11:17:00;101510.06;;;11.37;63.09
50268;BME280;36153;50.960;6.220;2023-02-02T11:20:38;101509.69;;;11.22;63.41
50268;BME280;36153;50.960;6.220;2023-02-02T11:23:39;101508.69;;;11.53;62.38
50268;BME280;36153;50.960;6.220;2023-02-02T11:29:51;101519.50;;;11.70;62.06
50268;BME280;36153;50.960;6.220;2023-02-02T11:32:52;101515.19;;;11.71;62.17
50268;BME280;36153;50.960;6.220;2023-02-02T11:36:19;101519.38;;;11.64;62.15
50268;BME280;36153;50.960;6.220;2023-02-02T11:39:20;101512.59;;;11.72;61.41
50268;BME280;36153;50.960;6.220;2023-02-02T11:42:22;101507.84;;;11.54;61.30
50268;BME280;36153;50.960;6.220;2023-02-02T11:45:43;101508.94;;;11.64;61.54
50268;BME280;36153;50.960;6.220;2023-02-02T11:49:05;101510.72;;;11.65;60.92
50268;BME280;36153;50.960;6.220;2023-02-02T11:52:17;101496.91;;;11.69;61.08
50268;BME280;36153;50.960;6.220;2023-02-02T11:55:24;101498.09;;;11.85;60.66
50268;BME280;36153;50.960;6.220;2023-02-02T11:58:28;101483.47;;;11.92;60.28
50268;BME280;36153;50.960;6.220;2023-02-02T12:01:37;101487.97;;;11.98;59.81
50268;BME280;36153;50.960;6.220;2023-02-02T12:04:41;101476.19;;;11.77;60.60
50268;BME280;36153;50.960;6.220;2023-02-02T12:07:42;101483.13;;;11.76;60.34
50268;BME280;36153;50.960;6.220;2023-02-02T12:10:50;101480.59;;;11.79;60.65
50268;BME280;36153;50.960;6.220;2023-02-02T12:13:58;101489.56;;;11.92;59.96
50268;BME280;36153;50.960;6.220;2023-02-02T12:17:22;101481.69;;;11.91;60.13
50268;BME280;36153;50.960;6.220;2023-02-02T12:27:42;101463.47;;;12.34;58.21
50268;BME280;36153;50.960;6.220;2023-02-02T12:44:36;101463.00;;;12.55;58.26
50268;BME280;36153;50.960;6.220;2023-02-02T12:51:58;101450.91;;;12.58;57.85
50268;BME280;36153;50.960;6.220;2023-02-02T13:05:28;101471.72;;;12.55;57.65
50268;BME280;36153;50.960;6.220;2023-02-02T13:08:46;101462.50;;;12.74;57.53
50268;BME280;36153;50.960;6.220;2023-02-02T13:11:52;101454.41;;;12.60;57.47
50268;BME280;36153;50.960;6.220;2023-02-02T13:14:58;101462.53;;;12.77;57.25
50268;BME280;36153;50.960;6.220;2023-02-02T13:18:05;101456.19;;;12.63;57.92
50268;BME280;36153;50.960;6.220;2023-02-02T13:21:13;101459.56;;;12.57;57.36
50268;BME280;36153;50.960;6.220;2023-02-02T13:24:20;101453.47;;;13.06;56.12
50268;BME280;36153;50.960;6.220;2023-02-02T13:27:24;101463.00;;;13.05;56.26
50268;BME280;36153;50.960;6.220;2023-02-02T13:33:33;101450.75;;;13.01;56.04
50268;BME280;36153;50.960;6.220;2023-02-02T13:36:35;101462.59;;;13.32;55.73
50268;BME280;36153;50.960;6.220;2023-02-02T13:39:46;101466.25;;;13.42;55.72
50268;BME280;36153;50.960;6.220;2023-02-02T13:43:08;101462.09;;;13.02;55.96
50268;BME280;36153;50.960;6.220;2023-02-02T13:46:35;101468.22;;;13.04;55.62
50268;BME280;36153;50.960;6.220;2023-02-02T13:49:47;101468.97;;;12.96;56.06
50268;BME280;36153;50.960;6.220;2023-02-02T13:53:54;101462.22;;;13.09;55.83
50268;BME280;36153;50.960;6.220;2023-02-02T14:00:19;101460.44;;;13.07;55.79
50268;BME280;36153;50.960;6.220;2023-02-02T14:03:28;101459.41;;;12.97;56.41
50268;BME280;36153;50.960;6.220;2023-02-02T14:06:55;101463.97;;;13.09;56.09
50268;BME280;36153;50.960;6.220;2023-02-02T14:09:58;101464.63;;;12.97;56.16
50268;BME280;36153;50.960;6.220;2023-02-02T14:22:41;101448.53;;;13.24;55.92
50268;BME280;36153;50.960;6.220;2023-02-02T14:28:45;101452.34;;;12.93;55.58
50268;BME280;36153;50.960;6.220;2023-02-02T14:31:53;101454.56;;;13.22;55.51
50268;BME280;36153;50.960;6.220;2023-02-02T14:38:30;101460.56;;;13.14;55.01
50268;BME280;36153;50.960;6.220;2023-02-02T14:41:46;101459.47;;;13.00;55.31
50268;BME280;36153;50.960;6.220;2023-02-02T14:45:13;101457.91;;;13.11;55.04
50268;BME280;36153;50.960;6.220;2023-02-02T14:48:20;101459.59;;;13.09;54.98
50268;BME280;36153;50.960;6.220;2023-02-02T14:51:24;101467.44;;;13.09;54.79
50268;BME280;36153;50.960;6.220;2023-02-02T14:54:35;101467.91;;;12.84;55.21
50268;BME280;36153;50.960;6.220;2023-02-02T14:57:37;101477.63;;;12.92;55.25
50268;BME280;36153;50.960;6.220;2023-02-02T15:00:38;101476.88;;;13.01;54.99
50268;BME280;36153;50.960;6.220;2023-02-02T15:06:42;101489.91;;;12.98;55.22
50268;BME280;36153;50.960;6.220;2023-02-02T15:09:43;101502.78;;;12.87;55.62
50268;BME280;36153;50.960;6.220;2023-02-02T15:12:44;101498.44;;;12.88;55.68
50268;BME280;36153;50.960;6.220;2023-02-02T15:15:46;101503.16;;;13.07;55.30
50268;BME280;36153;50.960;6.220;2023-02-02T15:18:57;101493.13;;;12.83;55.18
50268;BME280;36153;50.960;6.220;2023-02-02T15:22:14;101500.38;;;13.00;55.01
50268;BME280;36153;50.960;6.220;2023-02-02T15:28:45;101501.28;;;13.00;55.45
50268;BME280;36153;50.960;6.220;2023-02-02T15:31:50;101496.84;;;12.94;55.28
50268;BME280;36153;50.960;6.220;2023-02-02T15:34:57;101498.69;;;13.00;55.18
50268;BME280;36153;50.960;6.220;2023-02-02T15:38:04;101511.03;;;13.10;55.28
50268;BME280;36153;50.960;6.220;2023-02-02T15:41:22;101509.03;;;12.95;55.24
50268;BME280;36153;50.960;6.220;2023-02-02T15:44:27;101511.47;;;12.85;55.35
50268;BME280;36153;50.960;6.220;2023-02-02T15:47:32;101517.00;;;12.56;56.03
50268;BME280;36153;50.960;6.220;2023-02-02T15:50:33;101517.81;;;12.99;55.20
50268;BME280;36153;50.960;6.220;2023-02-02T15:56:38;101536.63;;;12.79;55.57
50268;BME280;36153;50.960;6.220;2023-02-02T15:59:39;101528.19;;;12.94;55.45
50268;BME280;36153;50.960;6.220;2023-02-02T16:02:41;101531.97;;;12.64;56.17
50268;BME280;36153;50.960;6.220;2023-02-02T16:05:47;101536.47;;;12.72;55.86
50268;BME280;36153;50.960;6.220;2023-02-02T16:08:49;101540.47;;;12.53;56.14
50268;BME280;36153;50.960;6.220;2023-02-02T16:11:49;101537.06;;;12.57;56.25
50268;BME280;36153;50.960;6.220;2023-02-02T16:14:52;101542.16;;;12.51;56.43
50268;BME280;36153;50.960;6.220;2023-02-02T16:18:01;101536.81;;;12.44;56.56
50268;BME280;36153;50.960;6.220;2023-02-02T16:21:07;101540.22;;;12.40;56.39
50268;BME280;36153;50.960;6.220;2023-02-02T16:24:13;101542.16;;;12.51;56.10
50268;BME280;36153;50.960;6.220;2023-02-02T16:27:24;101548.31;;;12.54;56.51
50268;BME280;36153;50.960;6.220;2023-02-02T16:30:28;101545.81;;;12.59;55.97
50268;BME280;36153;50.960;6.220;2023-02-02T16:33:43;101550.94;;;12.54;56.43
50268;BME280;36153;50.960;6.220;2023-02-02T16:37:02;101561.19;;;12.45;56.76
50268;BME280;36153;50.960;6.220;2023-02-02T16:40:23;101563.25;;;12.60;56.64
50268;BME280;36153;50.960;6.220;2023-02-02T16:43:28;101554.31;;;12.49;56.92
50268;BME280;36153;50.960;6.220;2023-02-02T16:46:41;101561.41;;;12.56;57.14
50268;BME280;36153;50.960;6.220;2023-02-02T16:49:42;101577.00;;;12.51;57.07
50268;BME280;36153;50.960;6.220;2023-02-02T16:52:52;101567.47;;;12.55;57.12
50268;BME280;36153;50.960;6.220;2023-02-02T16:55:53;101588.34;;;12.53;57.43
50268;BME280;36153;50.960;6.220;2023-02-02T16:58:54;101577.03;;;12.53;57.35
50268;BME280;36153;50.960;6.220;2023-02-02T17:02:03;101579.91;;;12.24;58.18
50268;BME280;36153;50.960;6.220;2023-02-02T17:05:07;101572.97;;;12.26;59.27
50268;BME280;36153;50.960;6.220;2023-02-02T17:08:24;101593.06;;;12.30;59.39
50268;BME280;36153;50.960;6.220;2023-02-02T17:11:26;101581.72;;;12.28;59.57
50268;BME280;36153;50.960;6.220;2023-02-02T17:14:33;101594.44;;;12.12;60.10
50268;BME280;36153;50.960;6.220;2023-02-02T17:17:34;101593.75;;;12.21;60.35
50268;BME280;36153;50.960;6.220;2023-02-02T17:20:34;101598.19;;;12.25;60.06
50268;BME280;36153;50.960;6.220;2023-02-02T17:23:35;101608.34;;;12.13;60.30
50268;BME280;36153;50.960;6.220;2023-02-02T17:26:35;101600.84;;;12.27;59.99
50268;BME280;36153;50.960;6.220;2023-02-02T17:29:36;101603.34;;;12.22;60.51
50268;BME280;36153;50.960;6.220;2023-02-02T17:32:36;101603.94;;;12.10;60.95
50268;BME280;36153;50.960;6.220;2023-02-02T17:35:36;101610.44;;;12.28;60.55
50268;BME280;36153;50.960;6.220;2023-02-02T17:38:37;101605.19;;;12.26;60.66
50268;BME280;36153;50.960;6.220;2023-02-02T17:41:38;101609.16;;;12.10;60.78
50268;BME280;36153;50.960;6.220;2023-02-02T17:44:39;101615.56;;;12.23;60.80
50268;BME280;36153;50.960;6.220;2023-02-02T17:47:39;101602.38;;;12.17;60.46
50268;BME280;36153;50.960;6.220;2023-02-02T17:50:40;101604.22;;;12.23;60.86
50268;BME280;36153;50.960;6.220;2023-02-02T17:53:42;101624.31;;;12.25;60.77
50268;BME280;36153;50.960;6.220;2023-02-02T17:56:42;101621.88;;;12.33;60.46
50268;BME280;36153;50.960;6.220;2023-02-02T17:59:43;101626.16;;;12.31;60.72
50268;BME280;36153;50.960;6.220;2023-02-02T18:02:43;101631.34;;;12.29;60.53